NY Terminal Aviation Weather Discussion (AFD) - Prepared: 1103 AM EDT TUE AUG 4 2015
A COLD FRONT WILL MOVE EAST ACROSS THE AREA TONIGHT FOLLOWED BY
HIGH PRESSURE ON WEDNESDAY.

VFR WEATHER CONDITIONS WILL PREVAIL THROUGH WEDNESDAY.

CHANCE OF ISOLATED TSTMS WITH STRONG WIND GUSTS...MAINLY EAST OF
NYC THROUGH SUNSET.

SEA BREEZES WILL INCREASE SW WINDS ARND 15 KT WITH GUSTS TO 25 KT
FM 1 PM UNTIL SUNSET ACROSS ATLANTIC COASTAL TERMINALS INCLUDING
KJFK. WINDS BECOME LIGHT AFT SUNSET THEN SHIFT FROM THE W ARND 10
KT ON WED.

5 Day General Aviation Outlook:

.OUTLOOK FOR 12Z WED THROUGH SAT...
.WED-THU...VFR. GENERALLY W FLOW.
.FRI...MVFR OR LOWER IN RAIN. WINDS BECOMING NE.
.SAT...MVFR OR LOWER POSSIBLE IN RAIN. NE WINDS.


NY Metro Terminal Aviation Weather Summary: (Explanation of Color Coding)
NOTE: All Wind Directions are TRUE (add 13 degrees for magnetic directions). Tail and Crosswind Calculations do account for the magnetic deviation of runways.

Click on the Airport Below for Specific Information at that Terminal

TAF Overview JFK TAF LGA TAF EWR TAF TEB TAF HPN TAF ISP TAF

Jump to AirSpace Impacts Section Condensed "lite" version of SPA page
**************************************************************************************
KJFK Terminal Weather: (Wind Directions Are True, Except Where Noted, ADD 13 degrees for Magnetic)

5MIN KJFK 041755Z 23017KT 10SM CLR 32/18 A2985 80 41 
     2100 240/17 RMK AO2
5MIN KJFK 041750Z 23019KT 10SM FEW055 SCT120 SCT250 
     32/18 A2985 80 41 2100 240/19 RMK AO2 SLP109 T03220178 10322 20233 55001
********************************************
****        MAGNETIC DIRECTIONS         ****
********************************************
KJFK 08/04/2015 18:01:33 GMT 230 15 G21KT
KJFK 08/04/2015 17:59:33 GMT 240 16 G21KT
KJFK 08/04/2015 17:57:33 GMT 240 16 G21KT
KJFK 08/04/2015 17:55:33 GMT 230 13 G21KT
KJFK 08/04/2015 17:53:33 GMT 240 16 G21KT
KJFK 08/04/2015 17:51:33 GMT 240 17 KT
KJFK 08/04/2015 17:49:33 GMT 240 17 KT
KJFK 08/04/2015 17:47:33 GMT 230 15 G20KT
KJFK 08/04/2015 17:45:33 GMT 240 14 G20KT
KJFK 08/04/2015 17:43:33 GMT 230 16 G22KT
SAUS70 KJFK 041800 RRH
METAR KJFK 041751Z 23017KT 10SM FEW055 SCT120 SCT250 32/18 A2985 RMK AO2
     SLP109 T03220178 10322 20233 57007
FTUS41 KOKX 041737
TAFJFK
TAF
KJFK 041737Z 0418/0524 23015G22KT P6SM SCT050
     FM042100 22018G25KT P6SM SCT050
     FM050100 26008KT P6SM SCT250
     FM050600 VRB03KT P6SM SCT250
     FM051400 29008KT P6SM SCT040
     FM051700 29012G18KT P6SM SCT050=
KJFK FCSTER COMMENTS: TIMING OF WIND GUSTS MAY BE OFF BY +/- 1
HOUR. AMENDMENTS MAY BE NEEDED FOR ISOLATED CONVECTION THIS
AFTERNOON.

jfk

JFK Hourly Forecast Temperature (C)

JFK Hourly TMPS
**************************************************************************************
KLGA Terminal Weather: (Wind Directions Are True, Except Where Noted, ADD 13 degrees for Magnetic)

5MIN KLGA 041755Z 26012G19KT 10SM FEW060 32/15 A2983 
     110 36 2100 270/12G19 RMK AO2
5MIN KLGA 041750Z 25013G22KT 10SM FEW065 SCT200 31/16 
     A2983 110 38 2000 260/13G22 RMK AO2 SLP102 T03110156 10317 20233 55001
********************************************
****        MAGNETIC DIRECTIONS         ****
********************************************
KLGA 08/04/2015 18:02:01 GMT 280 15 KT
KLGA 08/04/2015 18:00:00 GMT 280 14 KT
KLGA 08/04/2015 17:58:00 GMT 270 14 KT
KLGA 08/04/2015 17:56:00 GMT 280 16 KT
KLGA 08/04/2015 17:54:01 GMT 280 16 KT
KLGA 08/04/2015 17:51:51 GMT 270 15 KT
KLGA 08/04/2015 17:50:01 GMT 270 15 KT
KLGA 08/04/2015 17:48:01 GMT 280 15 G22KT
KLGA 08/04/2015 17:46:01 GMT 290 17 G22KT
KLGA 08/04/2015 17:44:00 GMT 290 21 KT
SAUS70 KLGA 041800
METAR KLGA 041751Z 25012G22KT 10SM FEW060 SCT200 31/16 A2983 RMK AO2
     SLP102 T03110156 10317 20233 56007
FTUS80 KLGA 041739 RRF
KLGA 041737Z 0418/0518 24012G20KT P6SM SCT050
     FM042100 24016G24KT P6SM SCT050
     FM050100 29007KT P6SM SCT250
     FM050500 VRB03KT P6SM SCT250
     FM051400 29008KT P6SM SCT040
     FM051700 29012G18KT P6SM SCT050
KLGA FCSTER COMMENTS: TIMING OF WIND GUSTS MAY BE OFF BY +/- 1
HOUR. AMENDMENTS MAY BE NEEDED FOR ISOLATED CONVECTION THIS
AFTERNOON.

lga


**************************************************************************************

KEWR Terminal Weather: (Wind Directions Are True, Except Where Noted, ADD 13 degrees for Magnetic)

5MIN KEWR 041755Z 26014G21KT 10SM SCT055 32/17 A2984 90
      38 2100 280/14G21 RMK AO2
5MIN KEWR 041750Z 26016KT 10SM SCT055 32/17 A2984 90 40
      2100 270/16 RMK AO2 SLP105 T03170167 10328 20217 55004
********************************************
****        MAGNETIC DIRECTIONS         ****
********************************************
KEWR 08/04/2015 18:01:23 GMT 280 13 G20KT
KEWR 08/04/2015 17:59:23 GMT 270 11 G17KT
KEWR 08/04/2015 17:57:24 GMT 270 11 G22KT
KEWR 08/04/2015 17:55:24 GMT 280 15 G22KT
KEWR 08/04/2015 17:53:24 GMT 280 15 G22KT
KEWR 08/04/2015 17:51:24 GMT 290 17 G22KT
KEWR 08/04/2015 17:49:24 GMT 300 17 G22KT
KEWR 08/04/2015 17:47:24 GMT 290 14 G24KT
KEWR 08/04/2015 17:45:24 GMT 280 16 G24KT
KEWR 08/04/2015 17:43:24 GMT 270 16 G24KT
SAUS70 KEWR 041800
METAR KEWR 041751Z 26015KT 10SM SCT055 SCT080 32/17 A2984 RMK AO2 SLP106
     T03170167 10328 20217 55005
FTUS41 KOKX 041737
TAFEWR
TAF
KEWR 041737Z 0418/0524 25013G23KT P6SM SCT050
     FM050100 28008KT P6SM SCT250
     FM050300 VRB03KT P6SM SCT250
     FM051400 28010KT P6SM SCT040
     FM051700 29013G19KT P6SM SCT050=
KEWR FCSTER COMMENTS: TIMING OF WIND GUSTS MAY BE OFF BY +/- 1
HOUR. AMENDMENTS MAY BE NEEDED FOR ISOLATED CONVECTION THIS
AFTERNOON.

ewr
Afternoon EWR Haze Potential Forecast: green
THE AFTERNOON KEWR HAZE POTENTIAL FORECAST IS GREEN...WHICH IMPLIES 
SLANT RANGE VISIBILITY 7SM OR GREATER OUTSIDE OF CLOUD.


******************************************************************************

KTEB Terminal Weather:
SAUS80 KTEB 041800
METAR KTEB 041751Z 28011G21KT 10SM FEW070 33/14 A2983 RMK AO2 SLP100
     T03280144 10328 20217 55004
FTUS80 KTEB 041739 RRJ
KTEB 041737Z 0418/0518 25013G22KT P6SM SCT050
     FM050000 29007KT P6SM SCT250
     FM050200 VRB03KT P6SM SCT250
     FM051500 28008KT P6SM SCT050
KTEB FCSTER COMMENTS: TIMING OF WIND GUSTS MAY BE OFF BY +/- 1
HOUR. AMENDMENTS MAY BE NEEDED FOR ISOLATED CONVECTION THIS
AFTERNOON.

teb

 


**************************************************************************************

KHPN Terminal Weather:
SAUS70 KHPN 041800 RRA
METAR KHPN 041756Z 25007G16KT 200V280 10SM SCT060 30/14 A2984 RMK AO2
     SLP097 T03000144 10311 20217 56008
FTUS80 KHPN 041739 RRD
KHPN 041737Z 0418/0518 28012G18KT P6SM SCT050
     FM042300 26008KT P6SM SCT250
     FM050100 VRB03KT P6SM SCT250
     FM051500 28008KT P6SM SCT050 AMD NOT SKED
KHPN FCSTER COMMENTS: TIMING OF WIND GUSTS MAY BE OFF BY +/- 1
HOUR. AMENDMENTS MAY BE NEEDED FOR ISOLATED CONVECTION THIS
AFTERNOON.

HPN


******************************************************************************

KISP Terminal Weather:
SAUS70 KISP 041800 RRB
METAR KISP 041756Z 19016KT 10SM FEW030 SCT095 30/19 A2983 RMK AO2 SLP101
     T03000194 10311 20228 56005
FTUS80 KISP 041739 RRE
KISP 041737Z 0418/0518 22014G22KT P6SM SCT030
     FM050000 23008KT P6SM SCT250
     FM050300 VRB03KT P6SM SCT250
     FM051500 27007KT P6SM SCT050
KISP FCSTER COMMENTS: TIMING OF WIND GUSTS MAY BE OFF BY +/- 1
HOUR. AMENDMENTS MAY BE NEEDED FOR ISOLATED CONVECTION THIS
AFTERNOON.

ISP

 


ZNY SWAP Season Information

(ZNY SWAP STATEMENT) (Click for PDF File) (ZNY BRIEFING) (Click for PDF File)

*******************************************************
***        NY AIR ROUTE TRAFFIC CONTROL CENTER      ***
***                DAILY SWAP STATEMENT             ***
*******************************************************
TUESDAY,  AUGUST 4, 2015

SWAP IS POSSIBLE AFT 17Z.
ISOLD-SCT TS WILL FORM ACROSS NORTH ZNY INTO ZBW AIRSPACE...WITH 
BRIEF IMPACTS POSSIBLE ALONG Q818/Q436 AND NORTH-BOUND TRAFFIC INTO 
ZBW. ADDITIONAL TS POSSIBLE ACROSS EAST ZNY AIRSPACE AFFECTING WHITE-
WAVEY ROUTES.

ADDT'L INFO: 
AZEZU-PAEPR-HANRI(L453-M201): IMPACTS EXPECTED. 
DITCH: IMPACTS POSSIBLE.  
EAST GATES: IMPACTS POSSIBLE. 
TOMORROW MORNINGS SWAP OUTLOOK:  SWAP IS NOT EXPECTED.
$$
MMD

N90 AirSpace Impacts

N90 ZNY Gate TSTM Forecast    SWAP Day One Forecast

SWAP Day One Forecast    SWAP Day Two Outlook

National Collaborative Convective Forecast Product (CCFP) Forecasts (Mar-Oct)

CAWS - Collaborative Aviation Weather Statement


Vertical Wind Profile
Untitled Document